createdAt,value
2022-10-12T00:00:50.690Z,4.90
2022-10-12T00:03:19.102Z,4.80
2022-10-12T00:05:47.489Z,4.70
2022-10-12T00:08:15.624Z,4.70
2022-10-12T00:10:45.485Z,4.70
2022-10-12T00:13:13.530Z,4.70
2022-10-12T00:15:42.576Z,4.60
2022-10-12T00:18:10.602Z,4.60
2022-10-12T00:20:38.809Z,4.60
2022-10-12T00:23:07.824Z,4.60
2022-10-12T00:25:37.836Z,4.60
2022-10-12T00:28:07.890Z,4.60
2022-10-12T00:30:40.262Z,4.60
2022-10-12T00:33:08.361Z,4.60
2022-10-12T00:35:36.444Z,4.60
2022-10-12T00:38:05.752Z,4.60
2022-10-12T00:40:33.875Z,4.50
2022-10-12T00:43:01.988Z,4.50
2022-10-12T00:45:32.478Z,4.60
2022-10-12T00:48:01.931Z,4.60
2022-10-12T00:50:34.099Z,4.50
2022-10-12T00:53:04.664Z,4.50
2022-10-12T00:55:36.937Z,4.50
2022-10-12T00:58:08.283Z,4.40
2022-10-12T01:00:39.605Z,4.30
2022-10-12T01:03:09.083Z,4.20
2022-10-12T01:05:40.313Z,4.20
2022-10-12T01:08:08.609Z,4.20
2022-10-12T01:10:36.721Z,4.10
2022-10-12T01:13:05.163Z,4.10
2022-10-12T01:15:38.253Z,4.10
2022-10-12T01:18:11.106Z,4.10
2022-10-12T01:21:07.008Z,4.00
2022-10-12T01:24:01.464Z,4.10
2022-10-12T01:27:18.314Z,4.10
2022-10-12T01:30:19.469Z,4.00
2022-10-12T01:33:15.250Z,3.90
2022-10-12T01:35:55.094Z,3.90
2022-10-12T01:38:33.377Z,3.90
2022-10-12T01:41:08.294Z,3.80
2022-10-12T01:43:38.072Z,3.80
2022-10-12T01:46:41.956Z,3.80
2022-10-12T01:49:13.451Z,3.80
2022-10-12T01:52:05.647Z,3.80
2022-10-12T01:54:44.902Z,3.80
2022-10-12T01:57:22.752Z,3.80
2022-10-12T02:00:00.480Z,3.70
2022-10-12T02:02:33.996Z,3.70
2022-10-12T02:05:10.585Z,3.70
2022-10-12T02:07:43.608Z,3.70
2022-10-12T02:10:17.377Z,3.70
2022-10-12T02:12:47.770Z,3.60
2022-10-12T02:15:18.071Z,3.70
2022-10-12T02:17:49.290Z,3.70
2022-10-12T02:20:20.821Z,3.70
2022-10-12T02:22:51.435Z,3.80
2022-10-12T02:25:23.030Z,3.80
2022-10-12T02:27:56.784Z,3.80
2022-10-12T02:30:25.113Z,3.80
2022-10-12T02:33:00.173Z,3.90
2022-10-12T02:35:38.146Z,3.90
2022-10-12T02:38:12.471Z,4.00
2022-10-12T02:40:44.464Z,4.00
2022-10-12T02:43:16.724Z,4.00
2022-10-12T02:45:48.822Z,3.90
2022-10-12T02:48:20.232Z,4.00
2022-10-12T02:50:52.679Z,4.00
2022-10-12T02:53:21.559Z,4.00
2022-10-12T02:55:52.085Z,4.00
2022-10-12T02:58:20.559Z,4.10
2022-10-12T03:00:48.784Z,4.10
2022-10-12T03:03:17.008Z,4.00
2022-10-12T03:05:45.319Z,4.00
2022-10-12T03:08:14.842Z,4.00
2022-10-12T03:10:42.854Z,4.00
2022-10-12T03:13:10.882Z,4.10
2022-10-12T03:15:38.999Z,4.10
2022-10-12T03:18:07.105Z,4.10
2022-10-12T03:20:35.192Z,4.10
2022-10-12T03:23:03.357Z,4.10
2022-10-12T03:25:33.217Z,4.00
2022-10-12T03:28:01.266Z,3.90
2022-10-12T03:30:29.277Z,3.80
2022-10-12T03:32:57.284Z,3.70
2022-10-12T03:35:25.793Z,3.70
2022-10-12T03:37:53.860Z,3.80
2022-10-12T03:40:21.891Z,3.70
2022-10-12T03:42:51.276Z,3.60
2022-10-12T03:45:19.383Z,3.60
2022-10-12T03:47:48.082Z,3.60
2022-10-12T03:50:16.242Z,3.60
2022-10-12T03:52:44.289Z,3.60
2022-10-12T03:55:13.287Z,3.60
2022-10-12T03:57:41.632Z,3.50
2022-10-12T04:00:12.970Z,3.60
2022-10-12T04:02:41.243Z,3.60
2022-10-12T04:05:09.976Z,3.60
2022-10-12T04:07:38.272Z,3.60
2022-10-12T04:10:08.043Z,3.60
2022-10-12T04:12:36.141Z,3.50
2022-10-12T04:15:04.509Z,3.50
2022-10-12T04:17:33.953Z,3.40
2022-10-12T04:20:02.006Z,3.40
2022-10-12T04:22:30.094Z,3.40
2022-10-12T04:24:58.159Z,3.40
2022-10-12T04:27:26.255Z,3.40
2022-10-12T04:29:54.295Z,3.40
2022-10-12T04:32:22.367Z,3.30
2022-10-12T04:34:51.800Z,3.30
2022-10-12T04:37:19.845Z,3.30
2022-10-12T04:39:47.958Z,3.20
2022-10-12T04:42:16.001Z,3.20
2022-10-12T04:44:44.054Z,3.20
2022-10-12T04:47:12.093Z,3.20
2022-10-12T04:49:40.196Z,3.20
2022-10-12T04:52:09.763Z,3.20
2022-10-12T04:54:37.820Z,3.20
2022-10-12T04:57:05.874Z,3.30
2022-10-12T04:59:33.903Z,3.30
2022-10-12T05:02:01.918Z,3.20
2022-10-12T05:04:29.969Z,3.20
2022-10-12T05:06:58.082Z,3.20
2022-10-12T05:09:27.508Z,3.20
2022-10-12T05:11:55.532Z,3.30
2022-10-12T05:14:23.679Z,3.30
2022-10-12T05:16:51.717Z,3.40
2022-10-12T05:19:19.909Z,3.40
2022-10-12T05:21:47.938Z,3.60
2022-10-12T05:24:16.017Z,3.50
2022-10-12T05:26:45.399Z,3.60
2022-10-12T05:29:13.457Z,3.50
2022-10-12T05:31:41.527Z,3.60
2022-10-12T05:34:09.798Z,3.60
2022-10-12T05:36:38.321Z,3.60
2022-10-12T05:39:06.368Z,3.70
2022-10-12T05:41:34.429Z,3.60
2022-10-12T05:44:04.017Z,3.60
2022-10-12T05:46:32.094Z,3.70
2022-10-12T05:49:00.142Z,3.70
2022-10-12T05:51:29.137Z,3.70
2022-10-12T05:53:57.323Z,3.70
2022-10-12T05:56:25.469Z,3.80
2022-10-12T05:58:53.506Z,4.00
2022-10-12T06:01:23.011Z,4.00
2022-10-12T06:03:51.873Z,4.10
2022-10-12T06:06:19.928Z,4.20
2022-10-12T06:08:47.997Z,4.30
2022-10-12T06:11:16.236Z,4.40
2022-10-12T06:13:44.260Z,4.50
2022-10-12T06:16:12.286Z,4.50
2022-10-12T06:18:41.748Z,4.70
2022-10-12T06:21:39.031Z,4.80
2022-10-12T06:23:57.957Z,5.10
2022-10-12T06:26:26.016Z,5.10
2022-10-12T06:28:54.195Z,5.20
2022-10-12T06:31:22.662Z,5.40
2022-10-12T06:33:52.438Z,5.40
2022-10-12T06:36:20.905Z,5.40
2022-10-12T06:38:49.027Z,5.50
2022-10-12T06:41:17.098Z,5.70
2022-10-12T06:43:45.428Z,5.70
2022-10-12T06:46:13.543Z,5.80
2022-10-12T06:48:41.619Z,5.90
2022-10-12T06:51:11.138Z,6.00
2022-10-12T06:53:39.155Z,6.10
2022-10-12T06:56:07.849Z,6.10
2022-10-12T06:58:36.169Z,6.20
2022-10-12T07:01:06.721Z,6.30
2022-10-12T07:03:35.149Z,6.40
2022-10-12T07:06:08.481Z,6.50
2022-10-12T07:08:38.191Z,6.50
2022-10-12T07:11:08.136Z,6.60
2022-10-12T07:13:37.095Z,6.70
2022-10-12T07:16:05.741Z,6.80
2022-10-12T07:18:33.905Z,6.90
2022-10-12T07:21:02.840Z,7.00
2022-10-12T07:23:31.505Z,7.10
2022-10-12T07:26:01.438Z,7.20
2022-10-12T07:28:30.006Z,7.30
2022-10-12T07:31:02.132Z,7.30
2022-10-12T07:33:34.103Z,7.40
2022-10-12T07:36:13.988Z,7.50
2022-10-12T07:38:45.095Z,7.60
2022-10-12T07:41:15.391Z,7.70
2022-10-12T07:43:43.647Z,7.70
2022-10-12T07:46:12.641Z,7.80
2022-10-12T07:48:45.698Z,7.90
2022-10-12T07:51:15.486Z,8.00
2022-10-12T07:53:43.633Z,8.10
2022-10-12T07:56:15.967Z,8.10
2022-10-12T07:58:44.722Z,8.20
2022-10-12T08:01:12.884Z,8.30
2022-10-12T08:03:41.108Z,8.40
2022-10-12T08:06:10.598Z,8.50
2022-10-12T08:08:38.871Z,8.60
2022-10-12T08:11:08.101Z,8.70
2022-10-12T08:13:38.353Z,8.90
2022-10-12T08:16:09.571Z,9.00
2022-10-12T08:18:37.643Z,9.10
2022-10-12T08:21:06.344Z,9.20
2022-10-12T08:23:36.046Z,9.30
2022-10-12T08:26:05.075Z,9.40
2022-10-12T08:28:34.438Z,9.50
2022-10-12T08:31:07.718Z,9.70
2022-10-12T08:33:35.747Z,9.80
2022-10-12T08:36:05.099Z,10.00
2022-10-12T08:38:33.397Z,10.10
2022-10-12T08:41:07.245Z,10.30
2022-10-12T08:43:46.226Z,10.40
2022-10-12T08:46:20.285Z,10.50
2022-10-12T08:48:51.855Z,10.70
2022-10-12T08:51:24.713Z,10.70
2022-10-12T08:53:58.318Z,10.90
2022-10-12T08:56:26.521Z,11.20
2022-10-12T08:58:55.433Z,11.20
2022-10-12T09:01:33.294Z,11.30
2022-10-12T09:04:12.085Z,11.40
2022-10-12T09:06:46.439Z,11.50
2022-10-12T09:09:34.287Z,11.50
2022-10-12T09:12:11.802Z,11.80
2022-10-12T09:14:42.693Z,11.90
2022-10-12T09:17:24.869Z,12.10
2022-10-12T09:20:03.757Z,12.20
2022-10-12T09:22:35.015Z,12.40
2022-10-12T09:25:04.421Z,12.50
2022-10-12T09:27:33.044Z,12.70
2022-10-12T09:30:05.003Z,12.80
2022-10-12T09:33:04.127Z,13.00
2022-10-12T09:35:32.373Z,13.20
2022-10-12T09:38:01.549Z,13.40
2022-10-12T09:40:33.266Z,13.70
2022-10-12T09:43:03.399Z,13.80
2022-10-12T09:45:34.943Z,13.90
2022-10-12T09:48:17.181Z,14.20
2022-10-12T09:50:50.010Z,14.50
2022-10-12T09:53:29.462Z,14.70
2022-10-12T09:56:07.768Z,14.90
2022-10-12T09:58:44.102Z,15.20
2022-10-12T10:01:22.495Z,15.40
2022-10-12T10:04:08.562Z,15.70
2022-10-12T10:06:37.460Z,15.80
2022-10-12T10:09:05.830Z,16.00
2022-10-12T10:11:34.098Z,16.00
2022-10-12T10:14:03.347Z,16.30
2022-10-12T10:16:32.148Z,16.30
2022-10-12T10:19:02.989Z,15.90
2022-10-12T10:21:35.070Z,16.10
2022-10-12T10:24:05.316Z,16.40
2022-10-12T10:26:52.617Z,16.70
2022-10-12T10:29:33.884Z,16.90
2022-10-12T10:32:12.157Z,16.90
2022-10-12T10:34:42.749Z,17.10
2022-10-12T10:37:19.879Z,17.30
2022-10-12T10:39:50.202Z,17.50
2022-10-12T10:42:21.517Z,17.70
2022-10-12T10:44:52.491Z,17.50
2022-10-12T10:47:20.785Z,17.50
2022-10-12T10:49:55.446Z,17.30
2022-10-12T10:52:26.307Z,17.30
2022-10-12T10:55:16.697Z,17.60
2022-10-12T10:57:49.307Z,17.60
2022-10-12T11:03:15.033Z,17.20
2022-10-12T11:05:50.475Z,16.90
2022-10-12T11:08:23.412Z,17.30
2022-10-12T11:10:57.404Z,17.40
2022-10-12T11:13:30.342Z,17.80
2022-10-12T11:16:04.077Z,17.90
2022-10-12T11:18:37.606Z,18.10
2022-10-12T11:21:13.280Z,18.50
2022-10-12T11:23:47.510Z,18.80
2022-10-12T11:26:23.957Z,19.00
2022-10-12T11:28:54.269Z,19.10
2022-10-12T11:31:27.779Z,19.40
2022-10-12T11:33:59.329Z,19.60
2022-10-12T11:36:33.297Z,19.90
2022-10-12T11:39:07.192Z,20.10
2022-10-12T11:42:03.054Z,19.80
2022-10-12T11:44:42.071Z,19.70
2022-10-12T11:47:17.258Z,19.00
2022-10-12T11:49:54.795Z,18.10
2022-10-12T11:52:29.063Z,17.20
2022-10-12T11:55:06.477Z,16.20
2022-10-12T11:57:38.715Z,15.70
2022-10-12T12:00:18.296Z,15.30
2022-10-12T12:02:50.732Z,14.90
2022-10-12T12:05:18.864Z,14.90
2022-10-12T12:07:49.857Z,15.40
2022-10-12T12:11:04.224Z,16.10
2022-10-12T12:13:33.268Z,17.00
2022-10-12T12:16:33.073Z,17.40
2022-10-12T12:19:37.467Z,18.00
2022-10-12T12:22:24.596Z,18.10
2022-10-12T12:25:04.093Z,18.30
2022-10-12T12:27:36.077Z,18.00
2022-10-12T12:30:07.814Z,17.30
2022-10-12T12:32:45.714Z,16.60
2022-10-12T12:35:25.748Z,15.90
2022-10-12T12:38:17.141Z,15.30
2022-10-12T12:41:12.425Z,14.90
2022-10-12T12:44:00.962Z,14.70
2022-10-12T12:47:39.935Z,14.40
2022-10-12T12:50:01.283Z,14.30
2022-10-12T12:52:32.414Z,14.10
2022-10-12T12:55:42.423Z,13.90
2022-10-12T12:58:37.156Z,13.70
2022-10-12T13:01:27.757Z,13.60
2022-10-12T13:04:31.418Z,13.50
2022-10-12T13:07:33.325Z,13.50
2022-10-12T13:10:11.511Z,13.60
2022-10-12T13:12:56.437Z,13.90
2022-10-12T13:15:53.172Z,14.10
2022-10-12T13:18:58.504Z,14.30
2022-10-12T13:21:29.362Z,14.40
2022-10-12T13:24:04.044Z,14.40
2022-10-12T13:26:33.463Z,14.50
2022-10-12T13:29:03.737Z,14.50
2022-10-12T13:31:38.633Z,14.40
2022-10-12T13:34:13.875Z,14.40
2022-10-12T13:36:53.354Z,14.30
2022-10-12T13:39:22.954Z,14.20
2022-10-12T13:41:54.196Z,14.10
2022-10-12T13:44:26.313Z,14.10
2022-10-12T13:46:59.072Z,14.00
2022-10-12T13:49:29.147Z,13.90
2022-10-12T13:51:59.185Z,13.90
2022-10-12T13:54:29.225Z,13.80
2022-10-12T13:57:00.227Z,13.70
2022-10-12T13:59:30.933Z,13.60
2022-10-12T14:02:02.265Z,13.60
2022-10-12T14:04:32.044Z,13.60
2022-10-12T14:07:03.963Z,13.80
2022-10-12T14:09:41.876Z,13.90
2022-10-12T14:12:11.672Z,14.00
2022-10-12T14:14:43.595Z,14.00
2022-10-12T14:17:16.512Z,14.00
2022-10-12T14:19:46.776Z,14.00
2022-10-12T14:22:21.759Z,14.00
2022-10-12T14:24:55.988Z,14.00
2022-10-12T14:27:30.185Z,14.00
2022-10-12T14:30:07.023Z,14.00
2022-10-12T14:32:42.648Z,14.00
2022-10-12T14:35:26.788Z,13.90
2022-10-12T14:37:55.994Z,13.80
2022-10-12T14:40:31.313Z,13.80
2022-10-12T14:43:03.630Z,13.70
2022-10-12T14:45:33.168Z,13.70
2022-10-12T14:48:03.462Z,13.60
2022-10-12T14:50:32.939Z,13.60
2022-10-12T14:53:03.814Z,13.60
2022-10-12T14:55:34.150Z,13.60
2022-10-12T14:58:03.618Z,13.50
2022-10-12T15:00:33.979Z,13.50
2022-10-12T15:03:03.898Z,13.40
2022-10-12T15:05:33.514Z,13.30
2022-10-12T15:08:07.178Z,13.20
2022-10-12T15:10:35.636Z,13.20
2022-10-12T15:13:03.833Z,13.10
2022-10-12T15:15:39.889Z,13.00
2022-10-12T15:18:09.620Z,13.00
2022-10-12T15:20:38.136Z,12.90
2022-10-12T15:23:06.719Z,12.90
2022-10-12T15:25:42.637Z,12.80
2022-10-12T15:28:11.009Z,12.80
2022-10-12T15:30:52.223Z,12.70
2022-10-12T15:33:29.075Z,12.70
2022-10-12T15:35:57.560Z,12.60
2022-10-12T15:38:25.803Z,12.50
2022-10-12T15:40:56.242Z,12.50
2022-10-12T15:43:24.439Z,12.40
2022-10-12T15:45:52.518Z,12.30
2022-10-12T15:48:20.807Z,12.30
2022-10-12T15:50:51.002Z,12.30
2022-10-12T15:53:22.161Z,12.30
2022-10-12T15:55:50.471Z,12.30
2022-10-12T15:58:18.579Z,12.20
2022-10-12T16:00:46.825Z,12.10
2022-10-12T16:03:20.180Z,12.10
2022-10-12T16:05:54.239Z,12.00
2022-10-12T16:08:22.597Z,11.90
2022-10-12T16:10:51.264Z,11.90
2022-10-12T16:13:19.399Z,11.90
2022-10-12T16:15:47.546Z,11.80
2022-10-12T16:18:16.094Z,11.80
2022-10-12T16:20:48.551Z,11.60
2022-10-12T16:23:25.648Z,11.70
2022-10-12T16:25:54.324Z,11.80
2022-10-12T16:28:23.720Z,11.70
2022-10-12T16:30:52.378Z,11.70
2022-10-12T16:33:21.087Z,11.60
2022-10-12T16:35:49.347Z,11.50
2022-10-12T16:38:20.130Z,11.50
2022-10-12T16:40:50.792Z,11.50
2022-10-12T16:43:19.414Z,11.50
2022-10-12T16:45:56.277Z,11.50
2022-10-12T16:48:24.363Z,11.50
2022-10-12T16:50:52.459Z,11.50
2022-10-12T16:53:20.547Z,11.40
2022-10-12T16:55:50.007Z,11.40
2022-10-12T16:58:18.104Z,11.40
2022-10-12T17:00:46.319Z,11.40
2022-10-12T17:03:14.494Z,11.40
2022-10-12T17:05:42.951Z,11.30
2022-10-12T17:08:15.336Z,11.20
2022-10-12T17:10:45.161Z,11.20
2022-10-12T17:13:14.936Z,11.20
2022-10-12T17:15:43.534Z,11.10
2022-10-12T17:18:11.825Z,11.10
2022-10-12T17:20:39.922Z,11.10
2022-10-12T17:23:08.127Z,11.10
2022-10-12T17:25:36.216Z,11.10
2022-10-12T17:28:04.344Z,11.00
2022-10-12T17:30:38.253Z,11.00
2022-10-12T17:33:06.365Z,10.90
2022-10-12T17:35:34.488Z,10.90
2022-10-12T17:38:02.606Z,10.70
2022-10-12T17:40:30.729Z,10.90
2022-10-12T17:42:59.155Z,10.90
2022-10-12T17:45:27.288Z,10.90
2022-10-12T17:47:57.356Z,10.80
2022-10-12T17:50:25.499Z,10.80
2022-10-12T17:52:53.745Z,10.80
2022-10-12T17:55:36.536Z,10.90
2022-10-12T17:58:10.341Z,10.80
2022-10-12T18:00:38.534Z,10.80
2022-10-12T18:03:08.107Z,10.80
2022-10-12T18:05:36.330Z,10.80
2022-10-12T18:08:04.461Z,10.80
2022-10-12T18:10:32.575Z,10.70
2022-10-12T18:13:01.346Z,10.70
2022-10-12T18:15:29.615Z,10.70
2022-10-12T18:17:57.737Z,10.70
2022-10-12T18:20:29.357Z,10.70
2022-10-12T18:22:58.417Z,10.50
2022-10-12T18:25:26.575Z,10.70
2022-10-12T18:27:54.644Z,10.30
2022-10-12T18:30:22.832Z,10.50
2022-10-12T18:32:53.776Z,10.40
2022-10-12T18:35:22.400Z,10.50
2022-10-12T18:37:52.028Z,10.40
2022-10-12T18:40:20.328Z,10.40
2022-10-12T18:42:48.725Z,10.30
2022-10-12T18:45:17.239Z,10.30
2022-10-12T18:47:45.412Z,10.20
2022-10-12T18:50:13.591Z,10.10
2022-10-12T18:52:43.947Z,10.10
2022-10-12T18:55:13.422Z,10.10
2022-10-12T18:57:41.597Z,10.10
2022-10-12T19:00:10.997Z,10.00
2022-10-12T19:02:39.141Z,9.90
2022-10-12T19:05:07.692Z,9.90
2022-10-12T19:07:36.385Z,9.80
2022-10-12T19:10:07.182Z,9.80
2022-10-12T19:12:36.986Z,9.90
2022-10-12T19:15:06.275Z,9.80
2022-10-12T19:17:34.495Z,9.80
2022-10-12T19:20:03.902Z,9.70
2022-10-12T19:22:31.990Z,9.60
2022-10-12T19:25:00.540Z,9.70
2022-10-12T19:27:28.729Z,9.60
2022-10-12T19:29:58.627Z,9.60
2022-10-12T19:32:26.800Z,9.60
2022-10-12T19:34:54.909Z,9.70
2022-10-12T19:37:23.229Z,9.60
2022-10-12T19:39:51.317Z,9.70
2022-10-12T19:42:19.826Z,9.80
2022-10-12T19:44:48.152Z,9.80
2022-10-12T19:47:17.675Z,9.80
2022-10-12T19:49:46.035Z,9.80
2022-10-12T19:52:15.468Z,9.80
2022-10-12T19:54:43.888Z,9.80
2022-10-12T19:57:12.036Z,9.80
2022-10-12T19:59:40.122Z,9.80
2022-10-12T20:02:09.186Z,9.90
2022-10-12T20:04:38.715Z,9.70
2022-10-12T20:07:06.858Z,9.80
2022-10-12T20:09:35.353Z,9.70
2022-10-12T20:12:03.455Z,9.70
2022-10-12T20:14:31.613Z,9.70
2022-10-12T20:16:59.707Z,9.70
2022-10-12T20:19:27.943Z,9.70
2022-10-12T20:21:57.422Z,9.60
2022-10-12T20:24:25.758Z,9.60
2022-10-12T20:26:53.845Z,9.40
2022-10-12T20:29:22.201Z,9.40
2022-10-12T20:31:50.258Z,9.30
2022-10-12T20:34:19.777Z,9.30
2022-10-12T20:36:48.702Z,9.30
2022-10-12T20:39:18.314Z,9.10
2022-10-12T20:41:47.062Z,9.10
2022-10-12T20:44:15.136Z,9.10
2022-10-12T20:46:55.973Z,9.10
2022-10-12T20:49:24.061Z,9.10
2022-10-12T20:51:52.381Z,9.00
2022-10-12T20:54:23.128Z,8.90
2022-10-12T20:56:52.019Z,8.90
2022-10-12T20:59:20.502Z,8.90
2022-10-12T21:01:48.597Z,8.90
2022-10-12T21:04:16.741Z,9.00
2022-10-12T21:06:44.836Z,9.10
2022-10-12T21:09:15.252Z,8.90
2022-10-12T21:11:44.754Z,8.90
2022-10-12T21:14:13.588Z,8.80
2022-10-12T21:16:41.831Z,8.80
2022-10-12T21:19:12.530Z,8.80
2022-10-12T21:21:40.603Z,8.70
2022-10-12T21:24:10.742Z,8.70
2022-10-12T21:26:38.992Z,8.70
2022-10-12T21:29:08.872Z,8.70
2022-10-12T21:31:37.014Z,8.70
2022-10-12T21:34:08.262Z,8.70
2022-10-12T21:36:37.740Z,8.70
2022-10-12T21:39:10.884Z,8.70
2022-10-12T21:41:39.068Z,8.60
2022-10-12T21:44:08.879Z,8.60
2022-10-12T21:46:37.923Z,8.60
2022-10-12T21:49:08.297Z,8.50
2022-10-12T21:51:37.838Z,8.50
2022-10-12T21:54:06.821Z,8.40
2022-10-12T21:56:36.737Z,8.40
2022-10-12T21:59:06.538Z,8.40
2022-10-12T22:01:37.721Z,8.30
2022-10-12T22:04:07.928Z,8.20
2022-10-12T22:06:36.102Z,8.10
2022-10-12T22:09:08.662Z,8.10
2022-10-12T22:11:38.647Z,8.10
2022-10-12T22:14:10.837Z,8.00
2022-10-12T22:16:40.622Z,8.10
2022-10-12T22:19:10.832Z,8.00
2022-10-12T22:21:38.912Z,7.80
2022-10-12T22:24:07.622Z,7.70
2022-10-12T22:26:36.182Z,7.60
2022-10-12T22:29:06.230Z,7.50
2022-10-12T22:31:34.749Z,7.50
2022-10-12T22:34:04.733Z,7.50
2022-10-12T22:36:36.454Z,7.30
2022-10-12T22:39:05.118Z,7.30
2022-10-12T22:41:33.154Z,7.20
2022-10-12T22:44:01.262Z,7.10
2022-10-12T22:46:29.316Z,7.10
2022-10-12T22:48:57.482Z,7.10
2022-10-12T22:51:33.152Z,7.00
2022-10-12T22:54:01.957Z,6.90
2022-10-12T22:56:32.179Z,6.90
2022-10-12T22:59:02.733Z,6.90
2022-10-12T23:01:31.278Z,6.90
2022-10-12T23:03:59.449Z,6.80
2022-10-12T23:06:28.957Z,6.80
2022-10-12T23:08:57.038Z,6.80
2022-10-12T23:11:27.185Z,6.80
2022-10-12T23:13:55.964Z,6.80
2022-10-12T23:16:26.209Z,6.80
2022-10-12T23:18:59.079Z,6.80
2022-10-12T23:21:30.047Z,6.80
2022-10-12T23:23:59.171Z,6.80
2022-10-12T23:26:28.513Z,6.80
2022-10-12T23:28:56.682Z,6.80
2022-10-12T23:31:26.998Z,6.80
2022-10-12T23:33:57.077Z,6.80
2022-10-12T23:36:25.287Z,6.80
2022-10-12T23:38:54.979Z,6.70
2022-10-12T23:41:23.545Z,6.70
2022-10-12T23:43:51.650Z,6.70
2022-10-12T23:46:19.697Z,6.60
2022-10-12T23:48:47.745Z,6.50
2022-10-12T23:51:15.805Z,6.50
2022-10-12T23:53:43.924Z,6.50
2022-10-12T23:56:13.603Z,6.50
2022-10-12T23:58:41.695Z,6.40
